sensor_id;sensor_type;location;lat;lon;timestamp;pressure;altitude;pressure_sealevel;temperature;humidity
48041;BME280;33815;48.386;11.738;2022-11-13T00:01:52;97639.03;;;1.71;100.00
48041;BME280;33815;48.386;11.738;2022-11-13T00:04:17;97637.25;;;1.73;100.00
48041;BME280;33815;48.386;11.738;2022-11-13T00:06:43;97629.06;;;1.65;100.00
48041;BME280;33815;48.386;11.738;2022-11-13T00:09:11;97638.44;;;1.66;100.00
48041;BME280;33815;48.386;11.738;2022-11-13T00:11:36;97637.25;;;1.73;100.00
48041;BME280;33815;48.386;11.738;2022-11-13T00:14:02;97629.06;;;1.65;100.00
48041;BME280;33815;48.386;11.738;2022-11-13T00:16:27;97616.34;;;1.62;100.00
48041;BME280;33815;48.386;11.738;2022-11-13T00:18:53;97626.00;;;1.76;100.00
48041;BME280;33815;48.386;11.738;2022-11-13T00:21:23;97619.13;;;1.76;100.00
48041;BME280;33815;48.386;11.738;2022-11-13T00:23:50;97607.47;;;1.69;100.00
48041;BME280;33815;48.386;11.738;2022-11-13T00:26:23;97606.28;;;1.76;100.00
48041;BME280;33815;48.386;11.738;2022-11-13T00:28:53;97611.34;;;1.78;100.00
48041;BME280;33815;48.386;11.738;2022-11-13T00:31:19;97594.47;;;1.72;100.00
48041;BME280;33815;48.386;11.738;2022-11-13T00:33:45;97593.00;;;1.85;100.00
48041;BME280;33815;48.386;11.738;2022-11-13T00:36:14;97589.81;;;1.80;100.00
48041;BME280;33815;48.386;11.738;2022-11-13T00:38:40;97583.34;;;1.71;100.00
48041;BME280;33815;48.386;11.738;2022-11-13T00:41:05;97589.59;;;1.85;100.00
48041;BME280;33815;48.386;11.738;2022-11-13T00:43:31;97594.59;;;1.88;100.00
48041;BME280;33815;48.386;11.738;2022-11-13T00:45:56;97587.50;;;1.93;100.00
48041;BME280;33815;48.386;11.738;2022-11-13T00:48:21;97591.41;;;1.83;100.00
48041;BME280;33815;48.386;11.738;2022-11-13T00:50:47;97589.06;;;1.78;100.00
48041;BME280;33815;48.386;11.738;2022-11-13T00:53:12;97564.25;;;1.77;100.00
48041;BME280;33815;48.386;11.738;2022-11-13T00:55:38;97578.88;;;1.94;100.00
48041;BME280;33815;48.386;11.738;2022-11-13T00:58:03;97572.78;;;1.78;100.00
48041;BME280;33815;48.386;11.738;2022-11-13T01:00:29;97542.56;;;1.64;100.00
48041;BME280;33815;48.386;11.738;2022-11-13T01:02:57;97557.72;;;1.70;100.00
48041;BME280;33815;48.386;11.738;2022-11-13T01:05:22;97560.00;;;1.76;100.00
48041;BME280;33815;48.386;11.738;2022-11-13T01:07:47;97560.66;;;1.99;100.00
48041;BME280;33815;48.386;11.738;2022-11-13T01:10:13;97546.47;;;1.73;100.00
48041;BME280;33815;48.386;11.738;2022-11-13T01:12:38;97539.59;;;1.73;100.00
48041;BME280;33815;48.386;11.738;2022-11-13T01:15:03;97548.19;;;1.72;100.00
48041;BME280;33815;48.386;11.738;2022-11-13T01:17:29;97545.06;;;1.65;100.00
48041;BME280;33815;48.386;11.738;2022-11-13T01:19:54;97532.13;;;1.49;100.00
48041;BME280;33815;48.386;11.738;2022-11-13T01:22:20;97524.88;;;1.58;100.00
48041;BME280;33815;48.386;11.738;2022-11-13T01:24:45;97529.41;;;1.52;100.00
48041;BME280;33815;48.386;11.738;2022-11-13T01:27:10;97528.84;;;1.46;100.00
48041;BME280;33815;48.386;11.738;2022-11-13T01:29:37;97534.31;;;1.57;100.00
48041;BME280;33815;48.386;11.738;2022-11-13T01:32:03;97532.84;;;1.51;100.00
48041;BME280;33815;48.386;11.738;2022-11-13T01:34:28;97522.53;;;1.53;100.00
48041;BME280;33815;48.386;11.738;2022-11-13T01:36:53;97522.16;;;1.61;100.00
48041;BME280;33815;48.386;11.738;2022-11-13T01:39:19;97525.44;;;1.64;100.00
48041;BME280;33815;48.386;11.738;2022-11-13T01:41:44;97521.41;;;1.59;100.00
48041;BME280;33815;48.386;11.738;2022-11-13T01:44:12;97522.53;;;1.53;100.00
48041;BME280;33815;48.386;11.738;2022-11-13T01:46:39;97520.31;;;1.64;100.00
48041;BME280;33815;48.386;11.738;2022-11-13T01:51:41;97522.31;;;1.58;100.00
48041;BME280;33815;48.386;11.738;2022-11-13T01:54:14;97510.19;;;1.42;100.00
48041;BME280;33815;48.386;11.738;2022-11-13T01:56:40;97510.19;;;1.42;100.00
48041;BME280;33815;48.386;11.738;2022-11-13T01:59:11;97494.91;;;1.39;100.00
48041;BME280;33815;48.386;11.738;2022-11-13T02:01:37;97511.50;;;1.32;100.00
48041;BME280;33815;48.386;11.738;2022-11-13T02:04:03;97510.66;;;1.31;100.00
48041;BME280;33815;48.386;11.738;2022-11-13T02:06:35;97511.56;;;1.30;100.00
48041;BME280;33815;48.386;11.738;2022-11-13T02:09:05;97504.69;;;1.31;100.00
48041;BME280;33815;48.386;11.738;2022-11-13T02:11:30;97507.13;;;1.34;100.00
48041;BME280;33815;48.386;11.738;2022-11-13T02:13:56;97498.16;;;1.43;100.00
48041;BME280;33815;48.386;11.738;2022-11-13T02:16:22;97501.72;;;1.21;100.00
48041;BME280;33815;48.386;11.738;2022-11-13T02:18:47;97498.09;;;1.25;100.00
48041;BME280;33815;48.386;11.738;2022-11-13T02:24:33;97499.97;;;1.22;100.00
48041;BME280;33815;48.386;11.738;2022-11-13T02:27:04;97495.31;;;1.11;100.00
48041;BME280;33815;48.386;11.738;2022-11-13T02:29:30;97492.69;;;0.93;100.00
48041;BME280;33815;48.386;11.738;2022-11-13T02:31:55;97463.72;;;0.90;100.00
48041;BME280;33815;48.386;11.738;2022-11-13T02:34:20;97474.34;;;0.82;100.00
48041;BME280;33815;48.386;11.738;2022-11-13T02:36:46;97477.53;;;0.68;100.00
48041;BME280;33815;48.386;11.738;2022-11-13T02:39:12;97475.78;;;0.68;100.00
48041;BME280;33815;48.386;11.738;2022-11-13T02:41:37;97456.25;;;0.45;100.00
48041;BME280;33815;48.386;11.738;2022-11-13T02:44:04;97456.69;;;0.55;100.00
48041;BME280;33815;48.386;11.738;2022-11-13T02:46:30;97450.09;;;0.49;100.00
48041;BME280;33815;48.386;11.738;2022-11-13T02:48:55;97457.53;;;0.56;100.00
48041;BME280;33815;48.386;11.738;2022-11-13T02:51:20;97454.28;;;0.52;100.00
48041;BME280;33815;48.386;11.738;2022-11-13T02:53:45;97450.28;;;0.45;100.00
48041;BME280;33815;48.386;11.738;2022-11-13T02:56:11;97453.78;;;0.44;100.00
48041;BME280;33815;48.386;11.738;2022-11-13T02:58:36;97444.34;;;0.44;100.00
48041;BME280;33815;48.386;11.738;2022-11-13T03:01:02;97432.69;;;0.37;100.00
48041;BME280;33815;48.386;11.738;2022-11-13T03:03:27;97426.25;;;0.47;100.00
48041;BME280;33815;48.386;11.738;2022-11-13T03:05:53;97434.84;;;0.46;100.00
48041;BME280;33815;48.386;11.738;2022-11-13T03:08:18;97435.47;;;0.51;100.00
48041;BME280;33815;48.386;11.738;2022-11-13T03:10:44;97406.66;;;0.26;100.00
48041;BME280;33815;48.386;11.738;2022-11-13T03:13:09;97426.00;;;0.54;100.00
48041;BME280;33815;48.386;11.738;2022-11-13T03:15:35;97423.53;;;0.50;100.00
48041;BME280;33815;48.386;11.738;2022-11-13T03:18:04;97423.34;;;0.55;100.00
48041;BME280;33815;48.386;11.738;2022-11-13T03:20:30;97417.00;;;0.43;100.00
48041;BME280;33815;48.386;11.738;2022-11-13T03:22:55;97413.19;;;0.33;100.00
48041;BME280;33815;48.386;11.738;2022-11-13T03:25:21;97410.91;;;0.27;100.00
48041;BME280;33815;48.386;11.738;2022-11-13T03:27:46;97398.41;;;0.19;100.00
48041;BME280;33815;48.386;11.738;2022-11-13T03:30:11;97418.63;;;0.25;100.00
48041;BME280;33815;48.386;11.738;2022-11-13T03:32:37;97416.66;;;0.32;100.00
48041;BME280;33815;48.386;11.738;2022-11-13T03:35:03;97394.22;;;0.16;100.00
48041;BME280;33815;48.386;11.738;2022-11-13T03:37:28;97411.44;;;0.33;100.00
48041;BME280;33815;48.386;11.738;2022-11-13T03:39:53;97405.94;;;0.43;100.00
48041;BME280;33815;48.386;11.738;2022-11-13T03:42:19;97415.22;;;0.45;100.00
48041;BME280;33815;48.386;11.738;2022-11-13T03:44:44;97412.91;;;0.39;100.00
48041;BME280;33815;48.386;11.738;2022-11-13T03:47:09;97406.13;;;0.38;100.00
48041;BME280;33815;48.386;11.738;2022-11-13T03:49:34;97405.53;;;0.52;100.00
48041;BME280;33815;48.386;11.738;2022-11-13T03:52:00;97399.00;;;0.45;100.00
48041;BME280;33815;48.386;11.738;2022-11-13T03:54:25;97402.72;;;0.19;100.00
48041;BME280;33815;48.386;11.738;2022-11-13T03:56:50;97398.75;;;0.11;100.00
48041;BME280;33815;48.386;11.738;2022-11-13T03:59:15;97383.41;;;0.10;100.00
48041;BME280;33815;48.386;11.738;2022-11-13T04:01:41;97391.16;;;0.08;100.00
48041;BME280;33815;48.386;11.738;2022-11-13T04:04:06;97387.69;;;0.09;100.00
48041;BME280;33815;48.386;11.738;2022-11-13T04:06:31;97363.31;;;0.01;100.00
48041;BME280;33815;48.386;11.738;2022-11-13T04:08:56;97381.19;;;0.02;100.00
48041;BME280;33815;48.386;11.738;2022-11-13T04:11:22;97373.69;;;-0.03;100.00
48041;BME280;33815;48.386;11.738;2022-11-13T04:13:47;97366.75;;;-0.01;100.00
48041;BME280;33815;48.386;11.738;2022-11-13T04:16:12;97373.56;;;0.01;100.00
48041;BME280;33815;48.386;11.738;2022-11-13T04:18:38;97369.75;;;0.09;100.00
48041;BME280;33815;48.386;11.738;2022-11-13T04:21:04;97363.22;;;0.02;100.00
48041;BME280;33815;48.386;11.738;2022-11-13T04:23:29;97350.81;;;-0.07;100.00
48041;BME280;33815;48.386;11.738;2022-11-13T04:25:55;97348.59;;;0.04;100.00
48041;BME280;33815;48.386;11.738;2022-11-13T04:28:20;97361.25;;;0.09;100.00
48041;BME280;33815;48.386;11.738;2022-11-13T04:30:45;97350.81;;;-0.07;100.00
48041;BME280;33815;48.386;11.738;2022-11-13T04:33:11;97355.63;;;0.01;100.00
48041;BME280;33815;48.386;11.738;2022-11-13T04:35:36;97352.72;;;0.08;100.00
48041;BME280;33815;48.386;11.738;2022-11-13T04:38:02;97362.13;;;0.08;100.00
48041;BME280;33815;48.386;11.738;2022-11-13T04:40:27;97353.75;;;0.04;100.00
48041;BME280;33815;48.386;11.738;2022-11-13T04:42:52;97353.63;;;0.07;100.00
48041;BME280;33815;48.386;11.738;2022-11-13T04:45:20;97330.22;;;-0.06;100.00
48041;BME280;33815;48.386;11.738;2022-11-13T04:47:46;97338.84;;;-0.07;100.00
48041;BME280;33815;48.386;11.738;2022-11-13T04:50:13;97335.75;;;0.06;100.00
48041;BME280;33815;48.386;11.738;2022-11-13T04:52:38;97327.63;;;-0.04;100.00
48041;BME280;33815;48.386;11.738;2022-11-13T04:55:04;97328.06;;;0.06;100.00
48041;BME280;33815;48.386;11.738;2022-11-13T04:57:30;97323.19;;;-0.01;100.00
48041;BME280;33815;48.386;11.738;2022-11-13T04:59:55;97318.72;;;0.05;100.00
48041;BME280;33815;48.386;11.738;2022-11-13T05:02:20;97327.16;;;0.07;100.00
48041;BME280;33815;48.386;11.738;2022-11-13T05:04:46;97327.22;;;0.05;100.00
48041;BME280;33815;48.386;11.738;2022-11-13T05:07:11;97326.47;;;0.03;100.00
48041;BME280;33815;48.386;11.738;2022-11-13T05:09:36;97334.16;;;0.03;100.00
48041;BME280;33815;48.386;11.738;2022-11-13T05:12:02;97314.25;;;-0.11;100.00
48041;BME280;33815;48.386;11.738;2022-11-13T05:14:29;97330.06;;;-0.01;100.00
48041;BME280;33815;48.386;11.738;2022-11-13T05:16:54;97330.88;;;-0.01;100.00
48041;BME280;33815;48.386;11.738;2022-11-13T05:19:19;97335.31;;;-0.04;100.00
48041;BME280;33815;48.386;11.738;2022-11-13T05:21:44;97323.41;;;-0.05;100.00
48041;BME280;33815;48.386;11.738;2022-11-13T05:24:10;97335.13;;;0.01;100.00
48041;BME280;33815;48.386;11.738;2022-11-13T05:26:37;97310.78;;;-0.10;100.00
48041;BME280;33815;48.386;11.738;2022-11-13T05:29:03;97329.91;;;0.02;100.00
48041;BME280;33815;48.386;11.738;2022-11-13T05:31:28;97306.50;;;-0.09;100.00
48041;BME280;33815;48.386;11.738;2022-11-13T05:33:53;97302.91;;;-0.05;100.00
48041;BME280;33815;48.386;11.738;2022-11-13T05:36:20;97308.53;;;0.03;100.00
48041;BME280;33815;48.386;11.738;2022-11-13T05:38:45;97299.91;;;0.04;100.00
48041;BME280;33815;48.386;11.738;2022-11-13T05:41:13;97300.41;;;-0.07;100.00
48041;BME280;33815;48.386;11.738;2022-11-13T05:43:38;97306.28;;;-0.05;100.00
48041;BME280;33815;48.386;11.738;2022-11-13T05:46:09;97295.06;;;-0.02;100.00
48041;BME280;33815;48.386;11.738;2022-11-13T05:48:36;97283.06;;;-0.02;100.00
48041;BME280;33815;48.386;11.738;2022-11-13T05:51:10;97271.13;;;-0.01;100.00
48041;BME280;33815;48.386;11.738;2022-11-13T05:53:36;97270.63;;;-0.09;100.00
48041;BME280;33815;48.386;11.738;2022-11-13T05:56:05;97277.00;;;0.01;100.00
48041;BME280;33815;48.386;11.738;2022-11-13T05:58:30;97246.16;;;-0.16;100.00
48041;BME280;33815;48.386;11.738;2022-11-13T06:01:07;97254.47;;;-0.11;100.00
48041;BME280;33815;48.386;11.738;2022-11-13T06:03:33;97247.19;;;-0.21;100.00
48041;BME280;33815;48.386;11.738;2022-11-13T06:05:58;97251.00;;;-0.29;100.00
48041;BME280;33815;48.386;11.738;2022-11-13T06:08:24;97252.56;;;-0.27;100.00
48041;BME280;33815;48.386;11.738;2022-11-13T06:10:49;97272.81;;;-0.21;100.00
48041;BME280;33815;48.386;11.738;2022-11-13T06:13:14;97272.03;;;-0.23;100.00
48041;BME280;33815;48.386;11.738;2022-11-13T06:15:40;97263.53;;;-0.23;100.00
48041;BME280;33815;48.386;11.738;2022-11-13T06:18:05;97266.97;;;-0.24;100.00
48041;BME280;33815;48.386;11.738;2022-11-13T06:20:35;97253.66;;;-0.32;100.00
48041;BME280;33815;48.386;11.738;2022-11-13T06:23:01;97257.69;;;-0.27;100.00
48041;BME280;33815;48.386;11.738;2022-11-13T06:25:27;97254.50;;;-0.32;100.00
48041;BME280;33815;48.386;11.738;2022-11-13T06:27:52;97259.44;;;-0.27;100.00
48041;BME280;33815;48.386;11.738;2022-11-13T06:30:18;97260.31;;;-0.28;100.00
48041;BME280;33815;48.386;11.738;2022-11-13T06:32:43;97238.63;;;-0.40;100.00
48041;BME280;33815;48.386;11.738;2022-11-13T06:35:08;97237.09;;;-0.24;100.00
48041;BME280;33815;48.386;11.738;2022-11-13T06:37:34;97230.69;;;-0.34;100.00
48041;BME280;33815;48.386;11.738;2022-11-13T06:39:59;97232.78;;;-0.23;100.00
48041;BME280;33815;48.386;11.738;2022-11-13T06:42:24;97224.53;;;-0.30;100.00
48041;BME280;33815;48.386;11.738;2022-11-13T06:44:49;97231.59;;;-0.16;100.00
48041;BME280;33815;48.386;11.738;2022-11-13T06:47:15;97227.38;;;-0.17;100.00
48041;BME280;33815;48.386;11.738;2022-11-13T06:49:40;97228.22;;;-0.16;100.00
48041;BME280;33815;48.386;11.738;2022-11-13T06:52:05;97195.19;;;-0.23;100.00
48041;BME280;33815;48.386;11.738;2022-11-13T06:54:31;97198.31;;;-0.16;100.00
48041;BME280;33815;48.386;11.738;2022-11-13T06:56:56;97209.94;;;-0.09;100.00
48041;BME280;33815;48.386;11.738;2022-11-13T06:59:22;97219.16;;;-0.05;100.00
48041;BME280;33815;48.386;11.738;2022-11-13T07:01:49;97197.13;;;-0.09;100.00
48041;BME280;33815;48.386;11.738;2022-11-13T07:04:15;97183.41;;;-0.27;100.00
48041;BME280;33815;48.386;11.738;2022-11-13T07:06:40;97191.41;;;-0.14;100.00
48041;BME280;33815;48.386;11.738;2022-11-13T07:09:06;97190.47;;;-0.13;100.00
48041;BME280;33815;48.386;11.738;2022-11-13T07:11:31;97183.72;;;-0.14;100.00
48041;BME280;33815;48.386;11.738;2022-11-13T07:13:56;97187.66;;;-0.07;100.00
48041;BME280;33815;48.386;11.738;2022-11-13T07:16:21;97180.28;;;-0.14;100.00
48041;BME280;33815;48.386;11.738;2022-11-13T07:18:51;97194.00;;;0.04;100.00
48041;BME280;33815;48.386;11.738;2022-11-13T07:21:17;97183.97;;;-0.01;100.00
48041;BME280;33815;48.386;11.738;2022-11-13T07:23:43;97192.09;;;0.09;100.00
48041;BME280;33815;48.386;11.738;2022-11-13T07:26:11;97187.03;;;0.07;100.00
48041;BME280;33815;48.386;11.738;2022-11-13T07:28:37;97192.63;;;0.15;100.00
48041;BME280;33815;48.386;11.738;2022-11-13T07:31:02;97198.09;;;0.27;100.00
48041;BME280;33815;48.386;11.738;2022-11-13T07:33:28;97190.19;;;0.49;100.00
48041;BME280;33815;48.386;11.738;2022-11-13T07:35:54;97183.22;;;0.53;100.00
48041;BME280;33815;48.386;11.738;2022-11-13T07:38:20;97179.75;;;0.54;100.00
48041;BME280;33815;48.386;11.738;2022-11-13T07:40:45;97175.13;;;0.60;100.00
48041;BME280;33815;48.386;11.738;2022-11-13T07:43:11;97155.31;;;0.64;100.00
48041;BME280;33815;48.386;11.738;2022-11-13T07:45:36;97197.13;;;1.01;100.00
48041;BME280;33815;48.386;11.738;2022-11-13T07:48:02;97201.97;;;1.07;100.00
48041;BME280;33815;48.386;11.738;2022-11-13T07:50:30;97212.28;;;1.23;100.00
48041;BME280;33815;48.386;11.738;2022-11-13T07:53:02;97209.88;;;1.38;100.00
48041;BME280;33815;48.386;11.738;2022-11-13T07:55:28;97204.94;;;1.33;100.00
48041;BME280;33815;48.386;11.738;2022-11-13T07:57:57;97212.38;;;1.39;100.00
48041;BME280;33815;48.386;11.738;2022-11-13T08:00:24;97212.97;;;1.27;100.00
48041;BME280;33815;48.386;11.738;2022-11-13T08:02:50;97221.75;;;1.23;100.00
48041;BME280;33815;48.386;11.738;2022-11-13T08:05:16;97210.56;;;1.24;100.00
48041;BME280;33815;48.386;11.738;2022-11-13T08:07:41;97220.31;;;1.17;100.00
48041;BME280;33815;48.386;11.738;2022-11-13T08:10:07;97197.88;;;1.20;100.00
48041;BME280;33815;48.386;11.738;2022-11-13T08:12:33;97216.75;;;1.19;100.00
48041;BME280;33815;48.386;11.738;2022-11-13T08:14:58;97210.53;;;1.41;100.00
48041;BME280;33815;48.386;11.738;2022-11-13T08:17:24;97198.22;;;1.30;100.00
48041;BME280;33815;48.386;11.738;2022-11-13T08:19:49;97205.41;;;1.41;100.00
48041;BME280;33815;48.386;11.738;2022-11-13T08:22:14;97193.69;;;1.53;100.00
48041;BME280;33815;48.386;11.738;2022-11-13T08:24:40;97190.34;;;1.51;100.00
48041;BME280;33815;48.386;11.738;2022-11-13T08:27:06;97196.47;;;1.48;100.00
48041;BME280;33815;48.386;11.738;2022-11-13T08:29:31;97188.13;;;1.61;100.00
48041;BME280;33815;48.386;11.738;2022-11-13T08:31:57;97174.84;;;1.52;100.00
48041;BME280;33815;48.386;11.738;2022-11-13T08:34:22;97172.25;;;1.70;100.00
48041;BME280;33815;48.386;11.738;2022-11-13T08:36:47;97132.84;;;1.53;100.00
48041;BME280;33815;48.386;11.738;2022-11-13T08:39:13;97133.19;;;1.63;100.00
48041;BME280;33815;48.386;11.738;2022-11-13T08:41:38;97132.72;;;1.73;100.00
48041;BME280;33815;48.386;11.738;2022-11-13T08:44:04;97145.56;;;2.04;100.00
48041;BME280;33815;48.386;11.738;2022-11-13T08:46:29;97159.94;;;2.55;100.00
48041;BME280;33815;48.386;11.738;2022-11-13T08:48:54;97147.69;;;3.05;100.00
48041;BME280;33815;48.386;11.738;2022-11-13T08:51:20;97167.22;;;3.38;100.00
48041;BME280;33815;48.386;11.738;2022-11-13T08:53:45;97172.47;;;3.65;100.00
48041;BME280;33815;48.386;11.738;2022-11-13T08:56:10;97168.78;;;3.84;100.00
48041;BME280;33815;48.386;11.738;2022-11-13T08:58:36;97148.97;;;3.70;100.00
48041;BME280;33815;48.386;11.738;2022-11-13T09:01:02;97162.34;;;3.76;100.00
48041;BME280;33815;48.386;11.738;2022-11-13T09:03:27;97138.47;;;3.87;100.00
48041;BME280;33815;48.386;11.738;2022-11-13T09:05:52;97153.00;;;4.03;100.00
48041;BME280;33815;48.386;11.738;2022-11-13T09:08:18;97149.22;;;4.08;100.00
48041;BME280;33815;48.386;11.738;2022-11-13T09:10:43;97146.03;;;4.18;100.00
48041;BME280;33815;48.386;11.738;2022-11-13T09:13:09;97156.50;;;4.43;100.00
48041;BME280;33815;48.386;11.738;2022-11-13T09:15:37;97142.09;;;4.67;100.00
48041;BME280;33815;48.386;11.738;2022-11-13T09:18:03;97141.28;;;4.79;100.00
48041;BME280;33815;48.386;11.738;2022-11-13T09:20:30;97136.16;;;4.92;100.00
48041;BME280;33815;48.386;11.738;2022-11-13T09:23:00;97133.06;;;5.25;100.00
48041;BME280;33815;48.386;11.738;2022-11-13T09:25:27;97125.63;;;5.34;100.00
48041;BME280;33815;48.386;11.738;2022-11-13T09:27:55;97136.97;;;5.82;100.00
48041;BME280;33815;48.386;11.738;2022-11-13T09:30:21;97146.44;;;5.82;100.00
48041;BME280;33815;48.386;11.738;2022-11-13T09:32:47;97133.91;;;6.14;100.00
48041;BME280;33815;48.386;11.738;2022-11-13T09:35:12;97128.44;;;6.06;100.00
48041;BME280;33815;48.386;11.738;2022-11-13T09:37:37;97124.19;;;6.29;100.00
48041;BME280;33815;48.386;11.738;2022-11-13T09:40:03;97111.75;;;6.34;100.00
48041;BME280;33815;48.386;11.738;2022-11-13T09:42:30;97108.41;;;6.45;100.00
48041;BME280;33815;48.386;11.738;2022-11-13T09:45:03;97107.13;;;6.51;100.00
48041;BME280;33815;48.386;11.738;2022-11-13T09:47:44;97085.56;;;6.50;100.00
48041;BME280;33815;48.386;11.738;2022-11-13T09:50:21;97095.69;;;6.89;100.00
48041;BME280;33815;48.386;11.738;2022-11-13T09:52:47;97099.47;;;6.85;100.00
48041;BME280;33815;48.386;11.738;2022-11-13T09:55:16;97098.75;;;6.94;100.00
48041;BME280;33815;48.386;11.738;2022-11-13T09:57:59;97085.78;;;6.94;100.00
48041;BME280;33815;48.386;11.738;2022-11-13T10:00:28;97086.91;;;7.03;100.00
48041;BME280;33815;48.386;11.738;2022-11-13T10:03:17;97076.75;;;7.00;100.00
48041;BME280;33815;48.386;11.738;2022-11-13T10:05:55;97058.84;;;7.08;100.00
48041;BME280;33815;48.386;11.738;2022-11-13T10:08:30;97074.41;;;7.19;100.00
48041;BME280;33815;48.386;11.738;2022-11-13T10:11:12;97053.44;;;7.11;100.00
48041;BME280;33815;48.386;11.738;2022-11-13T10:13:45;97071.00;;;7.42;100.00
48041;BME280;33815;48.386;11.738;2022-11-13T10:18:55;97070.28;;;7.62;100.00
48041;BME280;33815;48.386;11.738;2022-11-13T10:21:34;97065.78;;;7.76;100.00
48041;BME280;33815;48.386;11.738;2022-11-13T10:24:04;97060.94;;;7.71;99.02
48041;BME280;33815;48.386;11.738;2022-11-13T10:26:35;97056.72;;;7.81;98.95
48041;BME280;33815;48.386;11.738;2022-11-13T10:29:13;97056.81;;;7.91;100.00
48041;BME280;33815;48.386;11.738;2022-11-13T10:31:47;97047.50;;;7.88;99.91
48041;BME280;33815;48.386;11.738;2022-11-13T10:34:13;97042.69;;;8.05;98.19
48041;BME280;33815;48.386;11.738;2022-11-13T10:39:19;97026.94;;;8.29;96.06
48041;BME280;33815;48.386;11.738;2022-11-13T10:41:51;97031.34;;;8.50;94.57
48041;BME280;33815;48.386;11.738;2022-11-13T10:44:19;97024.34;;;8.29;95.34
48041;BME280;33815;48.386;11.738;2022-11-13T10:46:45;97018.13;;;8.41;97.41
48041;BME280;33815;48.386;11.738;2022-11-13T10:49:21;97006.41;;;8.59;96.41
48041;BME280;33815;48.386;11.738;2022-11-13T10:51:57;96997.94;;;8.45;95.23
48041;BME280;33815;48.386;11.738;2022-11-13T10:54:27;96999.72;;;8.66;97.36
48041;BME280;33815;48.386;11.738;2022-11-13T10:57:05;96993.47;;;8.68;94.99
48041;BME280;33815;48.386;11.738;2022-11-13T10:59:43;96997.88;;;8.78;92.61
48041;BME280;33815;48.386;11.738;2022-11-13T11:02:20;96987.56;;;8.97;94.82
48041;BME280;33815;48.386;11.738;2022-11-13T11:04:46;96976.75;;;9.33;91.05
48041;BME280;33815;48.386;11.738;2022-11-13T11:07:17;96968.41;;;9.29;90.85
48041;BME280;33815;48.386;11.738;2022-11-13T11:09:44;96974.44;;;9.39;96.50
48041;BME280;33815;48.386;11.738;2022-11-13T11:12:23;96978.13;;;9.37;95.08
48041;BME280;33815;48.386;11.738;2022-11-13T11:17:22;96965.63;;;9.91;96.12
48041;BME280;33815;48.386;11.738;2022-11-13T11:19:56;96952.03;;;9.97;92.26
48041;BME280;33815;48.386;11.738;2022-11-13T11:22:25;96963.16;;;10.28;89.04
48041;BME280;33815;48.386;11.738;2022-11-13T11:25:13;96953.41;;;10.01;89.03
48041;BME280;33815;48.386;11.738;2022-11-13T11:27:45;96935.03;;;10.22;89.58
48041;BME280;33815;48.386;11.738;2022-11-13T11:30:24;96945.19;;;10.45;88.82
48041;BME280;33815;48.386;11.738;2022-11-13T11:33:25;96923.19;;;10.57;86.46
48041;BME280;33815;48.386;11.738;2022-11-13T11:35:59;96930.38;;;10.45;92.04
48041;BME280;33815;48.386;11.738;2022-11-13T11:41:07;96930.13;;;10.86;84.28
48041;BME280;33815;48.386;11.738;2022-11-13T11:46:12;96921.44;;;10.95;87.74
48041;BME280;33815;48.386;11.738;2022-11-13T11:48:38;96906.66;;;10.86;87.81
48041;BME280;33815;48.386;11.738;2022-11-13T11:56:23;96903.41;;;11.02;85.28
48041;BME280;33815;48.386;11.738;2022-11-13T12:04:41;96884.94;;;10.95;85.17
48041;BME280;33815;48.386;11.738;2022-11-13T12:07:17;96881.91;;;11.18;85.62
48041;BME280;33815;48.386;11.738;2022-11-13T12:10:05;96876.47;;;11.11;82.37
48041;BME280;33815;48.386;11.738;2022-11-13T12:15:24;96865.25;;;10.73;85.14
48041;BME280;33815;48.386;11.738;2022-11-13T12:17:53;96867.78;;;10.93;85.34
48041;BME280;33815;48.386;11.738;2022-11-13T12:20:48;96858.50;;;10.80;84.92
48041;BME280;33815;48.386;11.738;2022-11-13T12:23:48;96864.66;;;10.52;86.82
48041;BME280;33815;48.386;11.738;2022-11-13T12:26:45;96870.56;;;10.54;86.79
48041;BME280;33815;48.386;11.738;2022-11-13T12:29:51;96853.72;;;10.76;85.50
48041;BME280;33815;48.386;11.738;2022-11-13T12:35:18;96853.19;;;10.72;85.95
48041;BME280;33815;48.386;11.738;2022-11-13T12:37:57;96856.69;;;10.81;85.99
48041;BME280;33815;48.386;11.738;2022-11-13T12:40:28;96859.22;;;10.73;86.17
48041;BME280;33815;48.386;11.738;2022-11-13T12:50:38;96826.97;;;10.74;87.79
48041;BME280;33815;48.386;11.738;2022-11-13T12:53:11;96821.88;;;11.00;85.45
48041;BME280;33815;48.386;11.738;2022-11-13T12:55:38;96813.38;;;10.98;86.13
48041;BME280;33815;48.386;11.738;2022-11-13T12:58:08;96808.06;;;10.90;87.29
48041;BME280;33815;48.386;11.738;2022-11-13T13:00:37;96797.38;;;10.93;86.61
48041;BME280;33815;48.386;11.738;2022-11-13T13:03:17;96821.91;;;11.18;85.00
48041;BME280;33815;48.386;11.738;2022-11-13T13:08:34;96804.53;;;11.09;85.40
48041;BME280;33815;48.386;11.738;2022-11-13T13:12:00;96801.59;;;10.94;85.78
48041;BME280;33815;48.386;11.738;2022-11-13T13:19:38;96798.88;;;10.95;86.30
48041;BME280;33815;48.386;11.738;2022-11-13T13:22:09;96782.16;;;11.06;85.12
48041;BME280;33815;48.386;11.738;2022-11-13T13:24:37;96782.78;;;11.18;86.39
48041;BME280;33815;48.386;11.738;2022-11-13T13:27:21;96779.13;;;10.93;87.46
48041;BME280;33815;48.386;11.738;2022-11-13T13:29:46;96769.84;;;10.80;89.15
48041;BME280;33815;48.386;11.738;2022-11-13T13:32:27;96767.16;;;10.72;88.85
48041;BME280;33815;48.386;11.738;2022-11-13T13:37:58;96773.66;;;10.86;90.37
48041;BME280;33815;48.386;11.738;2022-11-13T13:43:18;96783.97;;;11.24;86.60
48041;BME280;33815;48.386;11.738;2022-11-13T13:45:56;96786.03;;;11.20;86.58
48041;BME280;33815;48.386;11.738;2022-11-13T13:48:28;96781.50;;;11.22;86.71
48041;BME280;33815;48.386;11.738;2022-11-13T13:50:54;96767.34;;;11.07;86.24